Time;durP1;ratioP1;P1;durP2;ratioP2;P2;SDS_P1;SDS_P2;PMS_P1;PMS_P2;Temp;Humidity;BMP_temperature;BMP_pressure;BME280_temperature;BME280_humidity;BME280_pressure;Samples;Min_cycle;Max_cycle;Signal;HPM_P1;HPM_P2
2021/04/01 00:00:49;;;;;;;26.95;15.35;;;15.30;55.10;;;;;;2072746;28;20450;-84
2021/04/01 00:01:50;;;;;;;28.27;15.05;;;15.30;55.00;;;;;;2080746;28;20029;-83
2021/04/01 00:02:52;;;;;;;26.48;14.60;;;15.30;55.00;;;;;;2064472;28;20022;-83
2021/04/01 00:03:52;;;;;;;26.40;14.82;;;15.30;55.00;;;;;;2073019;28;20022;-83
2021/04/01 00:04:54;;;;;;;27.80;15.50;;;15.30;55.10;;;;;;2079510;28;20036;-83
2021/04/01 00:05:54;;;;;;;25.25;15.05;;;15.30;55.20;;;;;;2072790;28;20065;-83
2021/04/01 00:06:55;;;;;;;27.95;15.80;;;15.30;55.10;;;;;;2080922;28;20037;-83
2021/04/01 00:07:56;;;;;;;25.60;14.32;;;15.30;55.20;;;;;;2080264;28;20179;-83
2021/04/01 00:08:56;;;;;;;27.45;15.20;;;15.30;55.20;;;;;;2071492;28;20029;-83
2021/04/01 00:09:57;;;;;;;24.42;14.75;;;15.30;55.10;;;;;;2080413;28;20189;-83
2021/04/01 00:10:59;;;;;;;27.60;15.13;;;15.30;55.10;;;;;;2080534;28;20037;-83
2021/04/01 00:11:59;;;;;;;27.83;16.38;;;15.30;55.10;;;;;;2080499;28;20112;-83
2021/04/01 00:13:00;;;;;;;28.25;15.48;;;15.30;55.10;;;;;;2079553;28;20029;-83
2021/04/01 00:14:04;;;;;;;27.95;15.90;;;15.30;55.10;;;;;;2081686;28;20040;-83
2021/04/01 00:15:07;;;;;;;25.65;14.55;;;15.20;55.10;;;;;;2065052;28;20574;-84
2021/04/01 00:16:08;;;;;;;25.58;14.35;;;15.30;55.10;;;;;;2068945;28;20049;-84
2021/04/01 00:17:09;;;;;;;24.45;14.35;;;15.30;55.10;;;;;;2075427;28;20040;-83
2021/04/01 00:18:16;;;;;;;26.70;14.75;;;15.20;55.10;;;;;;2078728;28;20025;-83
2021/04/01 00:19:17;;;;;;;28.98;15.50;;;15.30;55.10;;;;;;2081952;28;20036;-84
2021/04/01 00:20:18;;;;;;;27.35;14.82;;;15.20;55.10;;;;;;2080529;28;20026;-83
2021/04/01 00:21:19;;;;;;;26.10;14.68;;;15.30;55.20;;;;;;2080504;28;20034;-83
2021/04/01 00:22:19;;;;;;;28.73;15.48;;;15.30;55.20;;;;;;2080942;28;20021;-83
2021/04/01 00:23:20;;;;;;;27.58;15.20;;;15.30;55.20;;;;;;2080968;28;20057;-83
2021/04/01 00:24:21;;;;;;;24.48;14.52;;;15.30;55.20;;;;;;2072536;28;20415;-83
2021/04/01 00:25:22;;;;;;;25.52;14.68;;;15.30;55.20;;;;;;2080939;28;20026;-83
2021/04/01 00:26:23;;;;;;;26.00;15.35;;;15.30;55.20;;;;;;2085966;28;20017;-83
2021/04/01 00:27:24;;;;;;;27.05;15.25;;;15.30;55.20;;;;;;2071114;28;20037;-83
2021/04/01 00:28:24;;;;;;;24.85;14.35;;;15.30;55.20;;;;;;2069649;28;20026;-83
2021/04/01 00:29:25;;;;;;;28.38;15.45;;;15.30;55.20;;;;;;2070142;28;20117;-83
2021/04/01 00:30:26;;;;;;;24.00;13.45;;;15.30;55.20;;;;;;2083360;28;20087;-83
2021/04/01 00:31:27;;;;;;;27.95;14.90;;;15.30;55.20;;;;;;2090046;28;20124;-83
2021/04/01 00:32:27;;;;;;;26.33;14.20;;;15.30;55.30;;;;;;2075231;28;20129;-83
2021/04/01 00:33:28;;;;;;;25.20;14.75;;;15.30;55.30;;;;;;2070430;28;20034;-84
2021/04/01 00:34:28;;;;;;;26.88;15.45;;;15.40;55.30;;;;;;2058992;28;20027;-83
2021/04/01 00:35:29;;;;;;;25.95;15.10;;;15.40;55.30;;;;;;2059229;28;20113;-83
2021/04/01 00:36:30;;;;;;;27.33;15.10;;;15.40;55.50;;;;;;2059526;28;20493;-83
2021/04/01 00:37:31;;;;;;;26.55;14.15;;;15.40;55.20;;;;;;2082724;28;20037;-84
2021/04/01 00:38:32;;;;;;;26.88;14.73;;;15.40;55.20;;;;;;2082612;28;20036;-83
2021/04/01 00:39:32;;;;;;;28.08;15.52;;;15.40;55.20;;;;;;2075246;28;20175;-84
2021/04/01 00:40:33;;;;;;;26.90;14.95;;;15.40;55.20;;;;;;2083464;28;20036;-84
2021/04/01 00:41:33;;;;;;;26.35;14.55;;;15.40;55.20;;;;;;2068114;28;20154;-83
2021/04/01 00:42:35;;;;;;;26.13;14.50;;;15.40;55.10;;;;;;2068599;28;20034;-84
2021/04/01 00:43:35;;;;;;;28.13;14.93;;;15.50;55.20;;;;;;2067120;28;20031;-83
2021/04/01 00:44:36;;;;;;;28.65;15.13;;;15.40;55.10;;;;;;2067278;28;20034;-84
2021/04/01 00:45:37;;;;;;;28.48;15.65;;;15.40;55.10;;;;;;2078287;28;20383;-83
2021/04/01 00:46:37;;;;;;;27.92;15.13;;;15.40;55.10;;;;;;2081961;28;20124;-83
2021/04/01 00:47:40;;;;;;;27.23;15.32;;;15.40;55.10;;;;;;2075221;28;20044;-84
2021/04/01 00:48:41;;;;;;;26.02;14.48;;;15.40;55.10;;;;;;2086228;28;20021;-84
2021/04/01 00:49:42;;;;;;;26.02;14.75;;;15.40;55.10;;;;;;2074967;28;20080;-83
2021/04/01 00:50:42;;;;;;;26.55;14.93;;;15.40;55.10;;;;;;2067828;28;20034;-83
2021/04/01 00:51:43;;;;;;;28.23;15.55;;;15.40;55.20;;;;;;2068633;28;20062;-83
2021/04/01 00:52:44;;;;;;;27.67;14.95;;;15.40;55.10;;;;;;2083333;28;20502;-84
2021/04/01 00:53:44;;;;;;;28.08;14.80;;;15.30;55.00;;;;;;2089898;28;20212;-83
2021/04/01 00:54:45;;;;;;;26.08;14.40;;;15.30;54.90;;;;;;2086805;28;20032;-83
2021/04/01 00:55:46;;;;;;;25.77;14.15;;;15.30;54.90;;;;;;2096818;28;20022;-81
2021/04/01 00:56:46;;;;;;;27.52;15.23;;;15.30;54.90;;;;;;2094638;28;20026;-83
2021/04/01 00:57:51;;;;;;;27.95;15.32;;;15.30;54.90;;;;;;2094585;28;20025;-82
2021/04/01 00:58:53;;;;;;;27.65;14.45;;;15.30;54.90;;;;;;2094521;28;20009;-82
2021/04/01 00:59:55;;;;;;;29.13;14.95;;;15.40;55.00;;;;;;2086958;28;20013;-83
2021/04/01 01:01:20;;;;;;;27.13;15.07;;;15.30;54.90;;;;;;2094651;28;20016;-83
2021/04/01 01:02:21;;;;;;;27.20;14.38;;;15.30;55.00;;;;;;2079518;28;20025;-84
2021/04/01 01:03:21;;;;;;;26.45;14.20;;;15.30;55.60;;;;;;2072068;28;20033;-83
2021/04/01 01:04:22;;;;;;;27.90;14.60;;;15.30;55.00;;;;;;2085187;28;20104;-83
2021/04/01 01:05:25;;;;;;;26.30;14.45;;;15.30;55.00;;;;;;2086555;28;20040;-83
2021/04/01 01:06:25;;;;;;;24.65;14.02;;;15.30;55.10;;;;;;2099336;28;20060;-82
2021/04/01 01:07:26;;;;;;;26.60;14.90;;;15.30;55.00;;;;;;2092837;28;20014;-83
2021/04/01 01:08:27;;;;;;;26.67;14.77;;;15.30;55.10;;;;;;2080317;28;20065;-82
2021/04/01 01:09:29;;;;;;;25.27;13.98;;;15.30;55.10;;;;;;2086190;28;20022;-82
2021/04/01 01:10:31;;;;;;;27.88;14.98;;;15.20;55.10;;;;;;2089761;28;20005;-83
2021/04/01 01:11:33;;;;;;;30.10;15.55;;;15.20;55.10;;;;;;2091887;28;20040;-84
2021/04/01 01:12:34;;;;;;;26.75;14.98;;;15.20;55.00;;;;;;2074562;28;20033;-83
2021/04/01 01:13:35;;;;;;;29.50;15.60;;;15.20;55.00;;;;;;2073844;28;20053;-84
2021/04/01 01:14:35;;;;;;;26.85;15.18;;;15.20;54.90;;;;;;2070868;28;20366;-84
2021/04/01 01:15:36;;;;;;;28.75;15.50;;;15.20;54.90;;;;;;2067112;28;20513;-84
2021/04/01 01:16:37;;;;;;;28.42;14.85;;;15.20;55.10;;;;;;2067361;28;20022;-83
2021/04/01 01:17:38;;;;;;;26.58;14.65;;;15.20;55.10;;;;;;2075373;28;20033;-84
2021/04/01 01:18:39;;;;;;;28.92;14.75;;;15.20;55.10;;;;;;2072902;28;20520;-83
2021/04/01 01:19:41;;;;;;;27.20;15.05;;;15.20;55.20;;;;;;2075237;28;20054;-83
2021/04/01 01:20:41;;;;;;;27.33;14.70;;;15.20;55.30;;;;;;2082755;28;20124;-83
2021/04/01 01:21:42;;;;;;;27.45;15.55;;;15.20;55.40;;;;;;2076225;28;20026;-83
2021/04/01 01:22:45;;;;;;;28.90;15.32;;;15.20;55.40;;;;;;2075915;28;20044;-83
2021/04/01 01:23:47;;;;;;;27.02;14.55;;;15.20;55.50;;;;;;2083415;28;20866;-83
2021/04/01 01:24:48;;;;;;;25.48;14.68;;;15.20;55.50;;;;;;2091918;28;20060;-83
2021/04/01 01:25:48;;;;;;;26.20;14.65;;;15.10;55.40;;;;;;2083186;28;20026;-83
2021/04/01 01:26:49;;;;;;;27.80;14.63;;;15.10;55.40;;;;;;2073955;28;20038;-82
2021/04/01 01:27:50;;;;;;;26.42;14.10;;;15.10;55.40;;;;;;2070527;28;20021;-82
2021/04/01 01:28:52;;;;;;;28.02;15.48;;;15.10;55.40;;;;;;2078003;28;20237;-82
2021/04/01 01:29:53;;;;;;;25.75;14.65;;;15.10;55.40;;;;;;2090321;28;20012;-81
2021/04/01 01:30:54;;;;;;;27.80;15.35;;;15.10;55.50;;;;;;2094322;28;20085;-83
2021/04/01 01:31:55;;;;;;;29.88;16.00;;;15.10;55.50;;;;;;2092238;28;20006;-84
2021/04/01 01:33:01;;;;;;;28.55;14.70;;;15.10;55.60;;;;;;2083103;28;20037;-83
2021/04/01 01:34:02;;;;;;;27.38;15.00;;;15.10;55.70;;;;;;2077821;28;20133;-83
2021/04/01 01:35:23;;;;;;;26.10;14.45;;;15.10;55.80;;;;;;2075426;28;20057;-83
2021/04/01 01:36:24;;;;;;;26.30;14.75;;;15.10;55.90;;;;;;2072748;28;20132;-83
2021/04/01 01:37:25;;;;;;;25.48;14.18;;;15.10;56.00;;;;;;2073155;28;20394;-83
2021/04/01 01:38:25;;;;;;;25.30;14.73;;;15.00;56.10;;;;;;2079153;28;20487;-83
2021/04/01 01:39:26;;;;;;;28.15;14.50;;;15.00;56.20;;;;;;2088134;28;20025;-83
2021/04/01 01:40:28;;;;;;;28.88;14.95;;;14.90;56.10;;;;;;2068991;28;20415;-83
2021/04/01 01:41:29;;;;;;;26.65;15.20;;;14.90;56.10;;;;;;2075117;28;20015;-83
2021/04/01 01:42:30;;;;;;;28.35;14.85;;;14.90;56.20;;;;;;2082023;28;20029;-83
2021/04/01 01:43:32;;;;;;;28.98;16.08;;;14.90;56.20;;;;;;2065150;28;20508;-83
2021/04/01 01:44:32;;;;;;;28.75;15.30;;;14.80;56.10;;;;;;2071436;28;20026;-83
2021/04/01 01:45:34;;;;;;;27.42;14.88;;;14.80;56.10;;;;;;2070906;28;20026;-83
2021/04/01 01:46:34;;;;;;;29.75;15.60;;;14.80;56.10;;;;;;2072962;28;20106;-82
2021/04/01 01:47:35;;;;;;;28.25;15.25;;;14.80;56.20;;;;;;2073460;28;20057;-83
2021/04/01 01:48:36;;;;;;;29.13;15.60;;;14.70;56.10;;;;;;2077735;28;20403;-83
2021/04/01 01:49:42;;;;;;;29.65;15.75;;;14.80;56.10;;;;;;2081211;28;20037;-83
2021/04/01 01:50:43;;;;;;;32.00;16.65;;;14.80;56.00;;;;;;2073783;28;20038;-83
2021/04/01 01:51:44;;;;;;;27.90;15.18;;;14.80;56.00;;;;;;2073779;28;20030;-83
2021/04/01 01:52:44;;;;;;;27.95;15.40;;;14.80;56.10;;;;;;2089818;28;20128;-83
2021/04/01 01:53:45;;;;;;;28.00;16.02;;;14.80;56.10;;;;;;2081974;28;20411;-83
2021/04/01 01:54:46;;;;;;;30.52;15.88;;;14.80;56.10;;;;;;2073547;28;20501;-84
2021/04/01 01:55:46;;;;;;;29.40;15.60;;;14.80;56.60;;;;;;2079203;28;20033;-83
2021/04/01 01:56:47;;;;;;;28.85;16.15;;;14.80;56.10;;;;;;2065459;28;20509;-82
2021/04/01 01:57:48;;;;;;;30.55;16.08;;;14.90;56.00;;;;;;2056828;28;20114;-83
2021/04/01 01:58:50;;;;;;;28.58;15.70;;;14.80;56.00;;;;;;2078436;28;20025;-83
2021/04/01 01:59:51;;;;;;;29.65;16.05;;;14.90;56.00;;;;;;2082485;28;20056;-83
2021/04/01 02:00:55;;;;;;;31.02;16.48;;;14.90;56.10;;;;;;2080324;28;20025;-83
2021/04/01 02:01:57;;;;;;;29.23;16.92;;;14.90;56.10;;;;;;2074133;28;20057;-82
2021/04/01 02:03:01;;;;;;;29.42;15.88;;;14.90;56.10;;;;;;2073138;28;20026;-83
2021/04/01 02:04:03;;;;;;;28.42;16.05;;;14.90;56.10;;;;;;2070763;28;20500;-83
2021/04/01 02:05:07;;;;;;;28.45;15.68;;;14.90;56.10;;;;;;2098004;28;20059;-83
2021/04/01 02:06:15;;;;;;;29.70;16.25;;;14.80;56.10;;;;;;2081820;28;20048;-83
2021/04/01 02:07:15;;;;;;;27.67;15.80;;;14.80;56.20;;;;;;2079196;28;20120;-82
2021/04/01 02:08:17;;;;;;;26.77;14.73;;;14.80;56.20;;;;;;2073388;28;20396;-83
2021/04/01 02:09:17;;;;;;;32.20;16.98;;;14.80;56.30;;;;;;2081670;28;20028;-83
2021/04/01 02:10:20;;;;;;;29.83;16.10;;;14.80;56.30;;;;;;2084509;28;20025;-83
2021/04/01 02:11:20;;;;;;;30.75;16.55;;;14.80;56.40;;;;;;2079016;28;20026;-83
2021/04/01 02:12:21;;;;;;;32.22;17.80;;;14.70;56.50;;;;;;2072928;28;20156;-83
2021/04/01 02:13:23;;;;;;;31.13;17.45;;;14.70;56.50;;;;;;2073654;28;20037;-84
2021/04/01 02:14:24;;;;;;;33.42;18.13;;;14.70;56.50;;;;;;2073435;28;20124;-83
2021/04/01 02:15:30;;;;;;;31.15;17.05;;;14.70;56.50;;;;;;2066768;28;20030;-84
2021/04/01 02:16:30;;;;;;;31.38;16.90;;;14.70;56.50;;;;;;2075028;28;20022;-83
2021/04/01 02:17:31;;;;;;;30.02;16.98;;;14.70;56.50;;;;;;2073073;28;20423;-83
2021/04/01 02:18:32;;;;;;;32.63;17.27;;;14.70;56.50;;;;;;2073529;28;20045;-83
2021/04/01 02:19:32;;;;;;;32.08;17.50;;;14.70;56.60;;;;;;2080026;28;20491;-83
2021/04/01 02:20:53;;;;;;;30.85;17.75;;;14.70;56.60;;;;;;2073669;28;20022;-83
2021/04/01 02:21:54;;;;;;;29.67;16.73;;;14.60;56.70;;;;;;2068110;28;20400;-83
2021/04/01 02:22:55;;;;;;;30.17;16.17;;;14.60;56.70;;;;;;2073317;28;20025;-83
2021/04/01 02:23:55;;;;;;;27.38;15.98;;;14.60;56.80;;;;;;2064767;28;20034;-83
2021/04/01 02:24:56;;;;;;;28.63;16.15;;;14.60;57.40;;;;;;2059622;28;20037;-82
2021/04/01 02:25:58;;;;;;;29.35;15.38;;;14.60;56.90;;;;;;2082157;28;20085;-82
2021/04/01 02:26:59;;;;;;;27.65;15.93;;;14.60;57.00;;;;;;2077969;28;20025;-82
2021/04/01 02:28:00;;;;;;;28.60;15.68;;;14.60;57.10;;;;;;2076195;28;20479;-83
2021/04/01 02:29:01;;;;;;;27.92;15.48;;;14.60;57.10;;;;;;2082118;28;20025;-83
2021/04/01 02:30:02;;;;;;;28.88;15.50;;;14.60;57.10;;;;;;2089488;28;20031;-82
2021/04/01 02:31:08;;;;;;;26.70;15.07;;;14.60;57.10;;;;;;2081199;28;20067;-83
2021/04/01 02:32:08;;;;;;;26.65;14.75;;;14.60;57.20;;;;;;2083902;28;20463;-83
2021/04/01 02:33:10;;;;;;;25.05;14.05;;;14.60;57.30;;;;;;2081646;28;20112;-83
2021/04/01 02:34:10;;;;;;;26.77;15.43;;;14.60;57.30;;;;;;2081505;28;20411;-83
2021/04/01 02:35:11;;;;;;;27.08;15.55;;;14.60;57.30;;;;;;2072593;28;20033;-83
2021/04/01 02:36:12;;;;;;;25.27;14.95;;;14.60;57.40;;;;;;2080995;28;20049;-83
2021/04/01 02:37:13;;;;;;;25.58;14.45;;;14.60;58.10;;;;;;2081516;28;20076;-83
2021/04/01 02:38:14;;;;;;;26.08;15.50;;;14.60;57.60;;;;;;2077449;28;20045;-83
2021/04/01 02:39:15;;;;;;;26.98;15.48;;;14.60;58.00;;;;;;2081417;28;20384;-83
2021/04/01 02:40:15;;;;;;;28.83;15.95;;;14.50;57.50;;;;;;2073323;28;20181;-83
2021/04/01 02:41:16;;;;;;;27.05;15.73;;;14.50;57.70;;;;;;2069004;28;20072;-83
2021/04/01 02:42:17;;;;;;;26.15;15.52;;;14.50;57.70;;;;;;2081610;28;20186;-83
2021/04/01 02:43:33;;;;;;;25.45;14.35;;;14.50;57.80;;;;;;2076274;28;20439;-84
2021/04/01 02:44:34;;;;;;;26.00;14.77;;;14.50;58.40;;;;;;2088075;28;20487;-83
2021/04/01 02:45:35;;;;;;;27.23;14.88;;;14.40;57.80;;;;;;2073732;28;20026;-84
2021/04/01 02:46:36;;;;;;;25.80;14.88;;;14.40;57.80;;;;;;2071981;28;20041;-84
2021/04/01 02:47:37;;;;;;;26.05;14.77;;;14.40;57.90;;;;;;2081649;28;20040;-84
2021/04/01 02:48:37;;;;;;;27.63;15.60;;;14.40;57.90;;;;;;2080704;28;20061;-84
2021/04/01 02:49:38;;;;;;;26.80;15.10;;;14.40;58.00;;;;;;2081605;28;20101;-84
2021/04/01 02:50:39;;;;;;;29.55;16.23;;;14.40;58.00;;;;;;2089869;28;20036;-84
2021/04/01 02:51:39;;;;;;;28.05;15.73;;;14.40;58.10;;;;;;2087020;28;20060;-83
2021/04/01 02:52:41;;;;;;;29.83;16.58;;;14.40;58.00;;;;;;2080960;28;20108;-84
2021/04/01 02:53:41;;;;;;;28.17;15.57;;;14.40;57.90;;;;;;2071359;28;20077;-84
2021/04/01 02:54:42;;;;;;;31.75;16.88;;;14.40;57.90;;;;;;2069630;28;20031;-84
2021/04/01 02:55:43;;;;;;;29.10;16.13;;;14.40;57.80;;;;;;2081193;28;20042;-84
2021/04/01 02:56:43;;;;;;;28.02;16.25;;;14.40;57.80;;;;;;2073246;28;20163;-84
2021/04/01 02:57:44;;;;;;;29.63;15.88;;;14.40;57.70;;;;;;2080738;28;20029;-84
2021/04/01 02:58:45;;;;;;;27.55;15.43;;;14.40;57.60;;;;;;2081017;28;20042;-84
2021/04/01 02:59:46;;;;;;;29.85;16.23;;;14.40;57.50;;;;;;2073582;28;20026;-83
2021/04/01 03:00:47;;;;;;;33.65;17.85;;;14.40;57.40;;;;;;2072501;28;20038;-84
2021/04/01 03:01:47;;;;;;;34.50;17.02;;;14.40;57.30;;;;;;2064665;28;20471;-84
2021/04/01 03:02:58;;;;;;;30.02;16.58;;;14.50;57.20;;;;;;2067778;28;20037;-84
2021/04/01 03:04:00;;;;;;;32.08;17.17;;;14.50;57.10;;;;;;2081446;28;20095;-84
2021/04/01 03:05:04;;;;;;;30.80;16.98;;;14.50;57.10;;;;;;2065296;28;20045;-84
2021/04/01 03:06:05;;;;;;;31.25;16.65;;;14.50;57.00;;;;;;2073384;28;20113;-83
2021/04/01 03:07:06;;;;;;;31.83;16.45;;;14.50;56.90;;;;;;2078030;28;20029;-83
2021/04/01 03:08:06;;;;;;;30.42;15.93;;;14.50;57.50;;;;;;2073339;28;20483;-84
2021/04/01 03:09:07;;;;;;;30.40;17.25;;;14.50;56.80;;;;;;2065292;28;20373;-84
2021/04/01 03:10:11;;;;;;;32.72;16.55;;;14.60;56.80;;;;;;2064545;28;20027;-84
2021/04/01 03:11:12;;;;;;;26.77;15.10;;;14.60;56.90;;;;;;2080649;28;20036;-84
2021/04/01 03:12:13;;;;;;;30.15;15.90;;;14.60;57.10;;;;;;2072771;28;20510;-84
2021/04/01 03:13:13;;;;;;;31.17;15.90;;;14.60;56.90;;;;;;2061603;28;20452;-84
2021/04/01 03:14:14;;;;;;;31.77;16.98;;;14.50;56.80;;;;;;2073218;28;20026;-84
2021/04/01 03:15:15;;;;;;;30.55;16.13;;;14.50;57.00;;;;;;2073257;28;20486;-83
2021/04/01 03:16:16;;;;;;;29.05;14.98;;;14.50;57.00;;;;;;2073189;28;20022;-84
2021/04/01 03:17:17;;;;;;;28.98;15.20;;;14.50;57.10;;;;;;2075638;28;20049;-84
2021/04/01 03:18:19;;;;;;;28.83;16.02;;;14.50;57.10;;;;;;2082354;28;20057;-84
2021/04/01 03:19:19;;;;;;;27.77;15.05;;;14.50;57.30;;;;;;2072986;28;20036;-84
2021/04/01 03:20:20;;;;;;;30.23;16.38;;;14.50;57.40;;;;;;2065798;28;20041;-84
2021/04/01 03:21:21;;;;;;;32.35;16.55;;;14.40;57.50;;;;;;2072963;28;20022;-84
2021/04/01 03:22:22;;;;;;;27.48;15.48;;;14.40;57.50;;;;;;2065327;28;20042;-84
2021/04/01 03:23:23;;;;;;;31.33;16.45;;;14.40;57.50;;;;;;2073642;28;20034;-84
2021/04/01 03:24:23;;;;;;;30.88;16.27;;;14.30;57.40;;;;;;2076026;28;20053;-84
2021/04/01 03:25:24;;;;;;;32.13;15.50;;;14.30;57.40;;;;;;2073157;28;20534;-84
2021/04/01 03:26:26;;;;;;;32.22;17.10;;;14.30;57.40;;;;;;2072925;28;20041;-84
2021/04/01 03:27:27;;;;;;;31.65;16.35;;;14.30;57.40;;;;;;2072212;28;20459;-84
2021/04/01 03:28:28;;;;;;;30.35;16.17;;;14.30;57.30;;;;;;2059092;28;20125;-83
2021/04/01 03:29:28;;;;;;;28.77;15.15;;;14.30;57.30;;;;;;2065247;28;20029;-84
2021/04/01 03:30:29;;;;;;;29.42;15.68;;;14.30;57.30;;;;;;2070193;28;20077;-83
2021/04/01 03:31:30;;;;;;;30.52;16.02;;;14.30;57.30;;;;;;2080243;28;20051;-85
2021/04/01 03:32:34;;;;;;;27.77;15.23;;;14.30;57.20;;;;;;2073113;28;20120;-84
2021/04/01 03:33:35;;;;;;;29.13;15.60;;;14.30;57.20;;;;;;2076917;28;20038;-83
2021/04/01 03:34:35;;;;;;;30.63;16.30;;;14.30;57.20;;;;;;2074630;28;20116;-83
2021/04/01 03:35:36;;;;;;;32.05;15.82;;;14.30;57.30;;;;;;2064257;28;20038;-84
2021/04/01 03:36:36;;;;;;;30.08;15.48;;;14.30;57.30;;;;;;2064967;28;20018;-84
2021/04/01 03:37:38;;;;;;;27.42;15.07;;;14.20;57.30;;;;;;2072680;28;20033;-83
2021/04/01 03:38:39;;;;;;;30.65;15.73;;;14.20;57.40;;;;;;2068892;28;20029;-84
2021/04/01 03:39:40;;;;;;;27.10;15.10;;;14.20;57.40;;;;;;2063847;28;20038;-83
2021/04/01 03:40:40;;;;;;;27.77;15.13;;;14.20;57.50;;;;;;2072591;28;20018;-83
2021/04/01 03:41:41;;;;;;;30.02;15.07;;;14.20;57.60;;;;;;2074868;28;20083;-83
2021/04/01 03:42:42;;;;;;;30.42;16.23;;;14.10;57.60;;;;;;2081139;28;20454;-83
2021/04/01 03:43:43;;;;;;;30.48;15.38;;;14.10;57.70;;;;;;2083422;28;20515;-83
2021/04/01 03:44:44;;;;;;;30.95;15.90;;;14.10;57.70;;;;;;2073159;28;20114;-83
2021/04/01 03:45:45;;;;;;;30.73;16.23;;;14.10;57.80;;;;;;2075485;28;20045;-83
2021/04/01 03:46:45;;;;;;;28.13;15.88;;;14.00;57.90;;;;;;2070959;28;20053;-83
2021/04/01 03:47:46;;;;;;;30.15;15.77;;;14.00;58.00;;;;;;2064348;28;20030;-83
2021/04/01 03:48:47;;;;;;;29.05;15.88;;;14.00;58.10;;;;;;2080217;28;20091;-83
2021/04/01 03:49:48;;;;;;;29.23;15.57;;;13.90;58.20;;;;;;2080980;28;20103;-83
2021/04/01 03:50:49;;;;;;;28.30;15.45;;;13.90;58.30;;;;;;2081178;28;20029;-83
2021/04/01 03:51:49;;;;;;;27.52;15.55;;;13.90;58.40;;;;;;2081006;28;20531;-82
2021/04/01 03:52:50;;;;;;;29.77;15.85;;;13.90;58.50;;;;;;2072864;28;20037;-83
2021/04/01 03:53:50;;;;;;;28.13;14.90;;;13.80;59.10;;;;;;2084918;28;20559;-82
2021/04/01 03:56:27;;;;;;;26.63;14.48;;;13.70;58.70;;;;;;2071519;28;20037;-83
2021/04/01 03:57:28;;;;;;;25.58;14.18;;;13.70;58.80;;;;;;2075421;28;20038;-83
2021/04/01 04:00:08;;;;;;;25.52;14.35;;;13.70;59.00;;;;;;2072360;28;20018;-83
2021/04/01 04:13:38;;;;;;;29.73;15.10;;;13.20;59.80;;;;;;2073373;28;20033;-82
2021/04/01 04:14:43;;;;;;;25.73;14.05;;;13.20;59.80;;;;;;2068219;28;20029;-83
2021/04/01 04:15:44;;;;;;;23.67;13.55;;;13.20;60.00;;;;;;2074958;28;20057;-82
2021/04/01 04:16:44;;;;;;;25.80;14.40;;;13.20;60.00;;;;;;2065136;28;20026;-83
2021/04/01 04:17:45;;;;;;;25.38;13.98;;;13.20;60.10;;;;;;2076239;28;20538;-83
2021/04/01 04:18:46;;;;;;;25.92;14.07;;;13.20;60.20;;;;;;2089119;28;20052;-83
2021/04/01 04:19:47;;;;;;;26.08;14.48;;;13.10;60.30;;;;;;2088617;28;20071;-83
2021/04/01 04:20:48;;;;;;;24.55;14.30;;;13.10;60.30;;;;;;2072345;28;20022;-83
2021/04/01 04:21:49;;;;;;;24.73;13.93;;;13.10;60.40;;;;;;2072715;28;20452;-82
2021/04/01 04:22:50;;;;;;;26.55;15.15;;;13.10;60.50;;;;;;2076738;28;20199;-82
2021/04/01 04:23:51;;;;;;;28.92;14.00;;;13.10;60.50;;;;;;2080492;28;20037;-82
2021/04/01 04:24:54;;;;;;;28.08;14.93;;;13.00;60.60;;;;;;2080893;28;20065;-82
2021/04/01 04:25:57;;;;;;;23.90;13.82;;;13.00;60.70;;;;;;2081000;28;20021;-82
2021/04/01 04:27:02;;;;;;;27.17;14.82;;;13.00;60.80;;;;;;2072926;28;20037;-82
2021/04/01 04:29:10;;;;;;;23.63;13.82;;;13.00;61.00;;;;;;2077852;28;20530;-82
2021/04/01 04:30:12;;;;;;;24.05;13.93;;;12.90;61.00;;;;;;2072571;28;20026;-82
2021/04/01 04:31:12;;;;;;;25.77;14.40;;;12.90;61.10;;;;;;2075551;28;20029;-82
2021/04/01 04:32:13;;;;;;;25.55;14.63;;;12.90;61.20;;;;;;2080763;28;20033;-82
2021/04/01 04:33:14;;;;;;;28.02;14.65;;;12.90;61.20;;;;;;2084153;28;20044;-82
2021/04/01 04:34:14;;;;;;;27.92;14.10;;;12.90;61.20;;;;;;2084753;28;20129;-82
2021/04/01 04:35:15;;;;;;;26.88;14.25;;;12.90;61.20;;;;;;2072179;28;20036;-82
2021/04/01 04:36:16;;;;;;;27.00;14.45;;;12.80;61.20;;;;;;2064332;28;20401;-82
2021/04/01 04:37:16;;;;;;;25.15;14.35;;;12.90;61.30;;;;;;2071851;28;20030;-82
2021/04/01 04:38:17;;;;;;;27.92;15.63;;;12.80;61.30;;;;;;2080146;28;20195;-82
2021/04/01 04:39:18;;;;;;;25.42;14.27;;;12.90;61.30;;;;;;2079445;28;20553;-83
2021/04/01 04:40:19;;;;;;;28.02;15.23;;;12.80;61.20;;;;;;2059443;28;20046;-82
2021/04/01 04:41:19;;;;;;;27.58;15.10;;;12.80;61.30;;;;;;2069691;28;20392;-82
2021/04/01 04:42:20;;;;;;;28.90;15.15;;;12.80;61.30;;;;;;2071677;28;20030;-83
2021/04/01 04:43:21;;;;;;;25.77;14.00;;;12.80;61.40;;;;;;2069160;28;20121;-83
2021/04/01 04:44:21;;;;;;;25.85;14.10;;;12.70;62.10;;;;;;2080220;28;20431;-83
2021/04/01 04:45:22;;;;;;;24.73;13.68;;;12.70;61.50;;;;;;2080748;28;20022;-83
2021/04/01 04:46:23;;;;;;;26.42;14.75;;;12.70;61.60;;;;;;2088516;28;20021;-83
2021/04/01 04:47:23;;;;;;;27.05;14.65;;;12.70;61.70;;;;;;2071999;28;20531;-83
2021/04/01 04:48:25;;;;;;;24.45;14.40;;;12.70;61.70;;;;;;2064340;28;20030;-83
2021/04/01 04:49:25;;;;;;;26.75;14.63;;;12.70;61.90;;;;;;2081970;28;20060;-83
2021/04/01 04:50:26;;;;;;;29.92;15.50;;;12.60;61.80;;;;;;2085121;28;20065;-83
2021/04/01 04:51:27;;;;;;;28.25;14.85;;;12.60;61.90;;;;;;2074546;28;20030;-82
2021/04/01 04:52:28;;;;;;;24.90;14.00;;;12.60;62.00;;;;;;2064134;28;20390;-82
2021/04/01 04:53:29;;;;;;;26.38;14.25;;;12.60;62.10;;;;;;2071199;28;20129;-82
2021/04/01 04:54:31;;;;;;;25.92;14.80;;;12.60;62.10;;;;;;2077043;28;20037;-82
2021/04/01 04:55:31;;;;;;;27.45;14.52;;;12.50;62.10;;;;;;2072415;28;20040;-82
2021/04/01 04:56:33;;;;;;;26.95;14.38;;;12.50;62.20;;;;;;2064130;28;20045;-83
2021/04/01 04:57:39;;;;;;;24.52;14.10;;;12.50;62.30;;;;;;2080826;28;20029;-83
2021/04/01 04:58:56;;;;;;;26.88;13.77;;;12.50;62.30;;;;;;2086982;28;20051;-83
2021/04/01 05:01:08;;;;;;;23.30;13.50;;;12.50;62.30;;;;;;2088237;28;20029;-83
2021/04/01 05:04:55;;;;;;;25.80;14.00;;;12.50;62.40;;;;;;2074301;28;20040;-83
2021/04/01 05:05:55;;;;;;;25.08;12.88;;;12.50;62.30;;;;;;2085130;28;20029;-83
2021/04/01 05:06:56;;;;;;;24.75;13.57;;;12.50;62.30;;;;;;2076528;28;20057;-83
2021/04/01 05:07:56;;;;;;;25.85;14.13;;;12.40;62.40;;;;;;2072973;28;20064;-83
2021/04/01 05:08:59;;;;;;;24.25;13.80;;;12.50;62.50;;;;;;2071935;28;20026;-83
2021/04/01 05:10:00;;;;;;;25.90;14.32;;;12.40;62.50;;;;;;2073508;28;20022;-83
2021/04/01 05:11:00;;;;;;;22.80;13.60;;;12.40;62.60;;;;;;2080027;28;20120;-83
2021/04/01 05:12:01;;;;;;;24.58;14.65;;;12.40;62.70;;;;;;2073139;28;20025;-82
2021/04/01 05:13:09;;;;;;;23.95;13.57;;;12.40;62.70;;;;;;2083379;28;20103;-83
2021/04/01 05:14:09;;;;;;;26.95;14.27;;;12.40;62.80;;;;;;2091742;28;20006;-82
2021/04/01 05:15:10;;;;;;;23.77;13.77;;;12.40;62.80;;;;;;2083885;28;20013;-82
2021/04/01 05:16:11;;;;;;;25.63;13.70;;;12.40;62.90;;;;;;2085055;28;20006;-82
2021/04/01 05:17:17;;;;;;;24.95;14.27;;;12.40;62.90;;;;;;2077670;28;20117;-82
2021/04/01 05:18:25;;;;;;;24.27;14.05;;;12.40;63.00;;;;;;2078672;28;20028;-82
2021/04/01 05:19:27;;;;;;;26.48;13.93;;;12.40;63.00;;;;;;2083772;28;20033;-83
2021/04/01 05:20:27;;;;;;;23.88;13.38;;;12.40;63.70;;;;;;2080918;28;20030;-83
2021/04/01 05:22:55;;;;;;;21.23;12.38;;;12.40;63.10;;;;;;2095685;28;20028;-82
2021/04/01 05:23:57;;;;;;;23.20;13.23;;;12.30;63.10;;;;;;2097667;28;20089;-82
2021/04/01 05:24:58;;;;;;;23.92;13.73;;;12.30;63.10;;;;;;2100204;28;20036;-82
2021/04/01 05:28:26;;;;;;;25.65;13.85;;;12.30;63.20;;;;;;2079332;28;20021;-82
2021/04/01 05:29:33;;;;;;;24.50;13.48;;;12.30;63.20;;;;;;2070578;28;20030;-82
2021/04/01 05:30:33;;;;;;;24.00;13.23;;;12.30;63.30;;;;;;2083872;28;20022;-82
2021/04/01 05:31:36;;;;;;;25.83;13.50;;;12.30;63.30;;;;;;2073957;28;20569;-82
2021/04/01 05:32:41;;;;;;;23.20;12.85;;;12.30;63.30;;;;;;2075458;28;20593;-82
2021/04/01 05:33:45;;;;;;;24.88;13.32;;;12.30;63.30;;;;;;2079048;28;20097;-82
2021/04/01 05:34:46;;;;;;;26.13;13.93;;;12.30;63.30;;;;;;2074802;28;20068;-83
2021/04/01 05:35:47;;;;;;;25.85;13.90;;;12.30;63.30;;;;;;2090161;28;20483;-83
2021/04/01 05:36:47;;;;;;;26.85;13.90;;;12.30;63.30;;;;;;2087071;28;20041;-82
2021/04/01 05:37:49;;;;;;;25.52;13.93;;;12.30;63.30;;;;;;2089990;28;20424;-82